Time;durP1;ratioP1;P1;durP2;ratioP2;P2;SDS_P1;SDS_P2;PMS_P1;PMS_P2;Temp;Humidity;BMP_temperature;BMP_pressure;BME280_temperature;BME280_humidity;BME280_pressure;Samples;Min_cycle;Max_cycle;Signal;HPM_P1;HPM_P2
2021/04/01 00:01:06;;;;;;;23.10;15.90;;;11.20;99.90;;;;;;4927258;28;20884;-82
2021/04/01 00:03:33;;;;;;;23.83;15.70;;;11.20;99.90;;;;;;4977024;28;20430;-83
2021/04/01 00:05:58;;;;;;;19.83;16.43;;;11.40;99.90;;;;;;4975050;28;20475;-83
2021/04/01 00:08:51;;;;;;;20.50;15.60;;;11.30;99.90;;;;;;4964390;28;20440;-83
2021/04/01 00:11:17;;;;;;;21.40;15.90;;;11.30;99.90;;;;;;4921811;29;20370;-83
2021/04/01 00:13:43;;;;;;;28.70;17.00;;;11.30;99.90;;;;;;4908022;29;21350;-83
2021/04/01 00:16:39;;;;;;;24.37;17.10;;;11.30;99.90;;;;;;4917643;29;20222;-83
2021/04/01 00:19:05;;;;;;;19.10;14.27;;;11.30;99.90;;;;;;4903473;29;20849;-82
2021/04/01 00:21:31;;;;;;;20.73;15.47;;;11.20;99.90;;;;;;4907778;29;20409;-82
2021/04/01 00:23:59;;;;;;;22.10;15.50;;;11.30;99.90;;;;;;4922479;29;20426;-83
2021/04/01 00:26:51;;;;;;;19.53;14.50;;;11.20;1.00;;;;;;4906203;29;20409;-83
2021/04/01 00:29:17;;;;;;;18.10;15.77;;;11.20;1.00;;;;;;4904209;29;20387;-84
2021/04/01 00:31:45;;;;;;;27.43;14.60;;;11.20;1.00;;;;;;4887431;29;20423;-83
2021/04/01 00:34:13;;;;;;;17.97;15.00;;;11.20;1.00;;;;;;4886085;29;20395;-82
2021/04/01 00:36:41;;;;;;;19.07;13.93;;;11.10;1.00;;;;;;4902917;29;20447;-84
2021/04/01 00:39:07;;;;;;;24.60;15.50;;;11.20;1.00;;;;;;4917943;29;20467;-83
2021/04/01 00:41:33;;;;;;;20.13;14.37;;;11.20;1.00;;;;;;4888479;29;21262;-82
2021/04/01 00:44:04;;;;;;;22.30;14.97;;;11.10;1.00;;;;;;4885476;29;20897;-83
2021/04/01 00:46:32;;;;;;;25.93;15.67;;;11.10;1.00;;;;;;4902985;29;20340;-83
2021/04/01 00:48:57;;;;;;;18.53;15.33;;;11.00;1.00;;;;;;4913960;29;20582;-82
2021/04/01 00:51:25;;;;;;;21.70;15.40;;;11.00;1.00;;;;;;4935644;28;20415;-84
2021/04/01 00:53:52;;;;;;;20.80;14.70;;;10.90;1.00;;;;;;4925991;29;21119;-83
2021/04/01 00:56:19;;;;;;;16.97;15.10;;;10.90;1.00;;;;;;4972213;28;20958;-83
2021/04/01 00:58:46;;;;;;;20.43;16.00;;;10.90;1.00;;;;;;4982834;28;20473;-83
2021/04/01 01:01:45;;;;;;;18.67;15.10;;;10.80;1.00;;;;;;5000496;28;20445;-82
2021/04/01 01:04:13;;;;;;;22.67;15.80;;;10.80;1.00;;;;;;4941828;29;20548;-83
2021/04/01 01:07:07;;;;;;;28.13;16.90;;;10.90;1.00;;;;;;4953539;28;20427;-83
2021/04/01 01:09:32;;;;;;;25.27;16.53;;;10.80;1.00;;;;;;4931594;28;20499;-83
2021/04/01 01:11:59;;;;;;;25.93;16.43;;;10.70;1.00;;;;;;4950399;28;20494;-81
2021/04/01 01:14:25;;;;;;;22.47;15.10;;;10.70;1.00;;;;;;4916216;28;20430;-81
2021/04/01 01:19:19;;;;;;;26.23;15.00;;;10.80;1.00;;;;;;5040045;28;20250;-77
2021/04/01 01:21:46;;;;;;;20.80;15.57;;;10.80;1.00;;;;;;5042736;28;20761;-77
2021/04/01 01:24:18;;;;;;;19.60;14.70;;;11.00;1.00;;;;;;5010495;28;20281;-77
2021/04/01 01:26:45;;;;;;;26.30;15.37;;;10.90;1.00;;;;;;5043852;28;20583;-77
2021/04/01 01:29:11;;;;;;;24.13;15.03;;;10.90;1.00;;;;;;5043741;28;20407;-76
2021/04/01 01:31:43;;;;;;;19.43;14.20;;;10.90;1.00;;;;;;5043875;28;20436;-76
2021/04/01 01:34:08;;;;;;;23.20;17.17;;;11.00;1.00;;;;;;5030779;28;20214;-76
2021/04/01 01:36:34;;;;;;;21.13;14.53;;;10.90;1.00;;;;;;5042221;28;20437;-76
2021/04/01 01:39:00;;;;;;;22.90;15.23;;;10.90;1.00;;;;;;5023629;28;20281;-77
2021/04/01 01:41:25;;;;;;;18.70;13.97;;;11.00;1.00;;;;;;5015132;28;20951;-77
2021/04/01 01:43:54;;;;;;;18.47;15.40;;;11.00;1.00;;;;;;5024641;28;20215;-76
2021/04/01 01:46:19;;;;;;;20.03;13.90;;;11.00;1.00;;;;;;5041215;28;21045;-77
2021/04/01 01:48:45;;;;;;;18.63;14.60;;;11.00;1.00;;;;;;5041667;28;20390;-77
2021/04/01 01:51:11;;;;;;;16.13;14.30;;;11.00;1.00;;;;;;5041875;28;20202;-77
2021/04/01 01:53:36;;;;;;;16.00;13.73;;;11.10;1.00;;;;;;5030435;28;20214;-76
2021/04/01 01:56:02;;;;;;;19.23;14.10;;;11.10;1.00;;;;;;5024753;28;20206;-77
2021/04/01 01:58:29;;;;;;;17.60;12.23;;;11.10;1.00;;;;;;5026591;28;20201;-76
2021/04/01 02:00:56;;;;;;;14.73;13.20;;;11.10;1.00;;;;;;5024425;28;20419;-77
2021/04/01 02:03:26;;;;;;;17.67;12.70;;;11.10;1.00;;;;;;5040073;28;20471;-76
2021/04/01 02:05:54;;;;;;;24.50;14.83;;;11.10;1.00;;;;;;5041553;28;20432;-76
2021/04/01 02:08:20;;;;;;;23.77;15.47;;;11.00;1.00;;;;;;5039782;28;20404;-77
2021/04/01 02:10:49;;;;;;;20.13;13.37;;;10.90;1.00;;;;;;5025690;28;20410;-77
2021/04/01 02:13:18;;;;;;;31.57;16.30;;;10.80;1.00;;;;;;5041719;28;20409;-76
2021/04/01 02:15:46;;;;;;;15.00;13.43;;;10.90;1.00;;;;;;5032700;28;20419;-76
2021/04/01 02:18:14;;;;;;;17.03;14.10;;;10.90;1.00;;;;;;5030671;28;20458;-77
2021/04/01 02:20:46;;;;;;;16.33;13.73;;;10.90;1.00;;;;;;5031899;28;20453;-76
2021/04/01 02:23:32;;;;;;;19.73;14.07;;;11.00;1.00;;;;;;5005471;28;20902;-77
2021/04/01 02:25:59;;;;;;;21.30;14.43;;;11.00;1.00;;;;;;5012948;28;20838;-77
2021/04/01 02:28:28;;;;;;;27.83;14.37;;;11.00;1.00;;;;;;5024703;28;20403;-76
2021/04/01 02:30:56;;;;;;;23.30;13.43;;;11.00;1.00;;;;;;5014652;28;20433;-76
2021/04/01 02:33:27;;;;;;;24.47;15.00;;;11.00;1.00;;;;;;5033555;28;20401;-76
2021/04/01 02:35:53;;;;;;;22.40;15.47;;;11.10;1.00;;;;;;5015977;28;20396;-77
2021/04/01 02:38:19;;;;;;;21.23;15.03;;;11.10;1.00;;;;;;5014130;28;20421;-77
2021/04/01 02:40:45;;;;;;;20.47;14.33;;;11.00;1.00;;;;;;5031054;28;20976;-77
2021/04/01 02:43:14;;;;;;;28.80;16.37;;;11.00;1.00;;;;;;5031781;28;20420;-77
2021/04/01 02:45:40;;;;;;;20.93;14.60;;;11.00;1.00;;;;;;5013418;28;20519;-78
2021/04/01 02:48:06;;;;;;;22.40;16.53;;;11.00;1.00;;;;;;5035125;28;20470;-77
2021/04/01 02:50:32;;;;;;;20.70;14.73;;;11.00;1.00;;;;;;5021385;28;20273;-77
2021/04/01 02:52:57;;;;;;;23.80;16.00;;;11.10;1.00;;;;;;5016883;28;20440;-77
2021/04/01 02:55:23;;;;;;;23.90;15.47;;;11.00;99.90;;;;;;5016422;28;20214;-77
2021/04/01 02:57:49;;;;;;;21.50;14.53;;;11.00;1.00;;;;;;5030673;28;20692;-77
2021/04/01 03:00:21;;;;;;;21.60;15.53;;;11.10;99.90;;;;;;5032684;28;20218;-77
2021/04/01 03:02:52;;;;;;;27.90;16.00;;;11.20;99.90;;;;;;5032886;28;20265;-77
2021/04/01 03:05:18;;;;;;;19.93;14.90;;;11.30;99.90;;;;;;5024642;28;20425;-76
2021/04/01 03:07:43;;;;;;;24.53;15.10;;;11.30;99.90;;;;;;5030672;28;20483;-76
2021/04/01 03:10:11;;;;;;;27.10;17.37;;;11.40;99.90;;;;;;5017661;28;20207;-76
2021/04/01 03:12:38;;;;;;;25.37;16.17;;;11.40;99.90;;;;;;5015559;28;20218;-76
2021/04/01 03:15:06;;;;;;;23.73;16.87;;;11.50;25.50;;;;;;5015844;28;20403;-76
2021/04/01 03:17:32;;;;;;;21.87;15.10;;;11.60;1.00;;;;;;5028559;28;20518;-76
2021/04/01 03:19:58;;;;;;;26.13;16.87;;;11.60;1.00;;;;;;5033450;28;20439;-76
2021/04/01 03:22:23;;;;;;;23.00;16.10;;;11.70;1.00;;;;;;5030486;28;20432;-76
2021/04/01 03:24:49;;;;;;;21.80;17.00;;;11.60;1.00;;;;;;5023188;28;20520;-77
2021/04/01 03:27:15;;;;;;;29.90;17.70;;;11.60;1.00;;;;;;5031891;28;20677;-77
2021/04/01 03:29:40;;;;;;;25.00;17.20;;;11.70;1.00;;;;;;5033726;28;20191;-77
2021/04/01 03:32:06;;;;;;;36.63;20.03;;;11.80;1.00;;;;;;4996504;28;20211;-77
2021/04/01 03:34:32;;;;;;;29.77;18.97;;;11.80;1.00;;;;;;5014037;28;20422;-76
2021/04/01 03:36:58;;;;;;;27.37;16.33;;;11.90;1.00;;;;;;5029058;28;20425;-76
2021/04/01 03:39:24;;;;;;;18.73;15.10;;;11.90;1.00;;;;;;5007834;28;20211;-77
2021/04/01 03:41:49;;;;;;;31.50;18.50;;;11.80;1.00;;;;;;4995645;28;20493;-77
2021/04/01 03:44:15;;;;;;;31.43;16.80;;;11.90;1.00;;;;;;5013846;28;20439;-77
2021/04/01 03:46:41;;;;;;;19.97;16.60;;;11.80;1.00;;;;;;4996202;28;20614;-76
2021/04/01 03:49:07;;;;;;;26.00;16.70;;;11.80;1.00;;;;;;5013367;28;20207;-77
2021/04/01 03:52:00;;;;;;;35.30;18.20;;;11.90;99.90;;;;;;5029315;28;20214;-77
2021/04/01 03:54:26;;;;;;;21.33;15.33;;;12.00;99.90;;;;;;5012220;28;20272;-77
2021/04/01 03:56:52;;;;;;;21.63;16.77;;;11.90;99.90;;;;;;5033360;28;20537;-77
2021/04/01 03:59:22;;;;;;;22.33;17.10;;;11.80;1.00;;;;;;5014537;28;20285;-77
2021/04/01 04:04:47;;;;;;;30.77;18.77;;;11.80;1.00;;;;;;5033207;28;20415;-77
2021/04/01 04:07:27;;;;;;;29.20;16.77;;;11.70;1.00;;;;;;5011856;28;20419;-77
2021/04/01 04:15:37;;;;;;;25.70;17.97;;;11.80;1.00;;;;;;5031502;28;20217;-77
2021/04/01 04:17:55;;;;;;;25.97;17.97;;;11.80;1.00;;;;;;5029932;28;20428;-77
2021/04/01 04:20:21;;;;;;;23.83;17.70;;;11.80;1.00;;;;;;5025384;28;20420;-77
2021/04/01 04:22:50;;;;;;;27.87;18.90;;;11.60;1.00;;;;;;5016289;28;20652;-77
2021/04/01 04:25:16;;;;;;;27.20;18.57;;;11.60;1.00;;;;;;5029469;28;20217;-77
2021/04/01 04:30:20;;;;;;;25.20;16.33;;;11.40;99.90;;;;;;5031225;28;20844;-77
2021/04/01 04:32:46;;;;;;;35.33;17.70;;;11.30;99.90;;;;;;5031342;28;20759;-77
2021/04/01 04:35:12;;;;;;;30.30;19.33;;;11.20;99.90;;;;;;5030643;28;20424;-77
2021/04/01 04:37:39;;;;;;;28.90;20.20;;;11.20;99.90;;;;;;5027882;28;20408;-76
2021/04/01 04:40:06;;;;;;;31.03;18.30;;;11.20;99.90;;;;;;5019334;28;20424;-76
2021/04/01 04:42:32;;;;;;;25.30;17.00;;;11.20;99.90;;;;;;5015528;28;20424;-76
2021/04/01 04:44:59;;;;;;;30.07;19.50;;;11.20;99.90;;;;;;5024135;28;20510;-76
2021/04/01 04:47:25;;;;;;;26.17;19.50;;;11.30;99.90;;;;;;5010203;28;20908;-77
2021/04/01 04:49:50;;;;;;;31.67;19.30;;;11.40;99.90;;;;;;5020813;28;20445;-77
2021/04/01 04:52:17;;;;;;;29.23;18.40;;;11.30;99.90;;;;;;5029131;28;20207;-77
2021/04/01 04:54:43;;;;;;;26.33;19.30;;;11.30;99.90;;;;;;5013442;28;20207;-77
2021/04/01 04:57:21;;;;;;;29.50;18.77;;;11.10;99.90;;;;;;5011781;28;20425;-77
2021/04/01 05:04:59;;;;;;;26.23;19.10;;;10.70;1.00;;;;;;4994474;28;20218;-77
2021/04/01 05:07:25;;;;;;;31.03;18.70;;;10.60;1.00;;;;;;5013736;28;20536;-76
2021/04/01 05:09:51;;;;;;;35.67;17.97;;;10.50;1.00;;;;;;5029020;28;20429;-77
2021/04/01 05:12:17;;;;;;;25.57;19.37;;;10.40;1.00;;;;;;5008223;28;20804;-76
2021/04/01 05:14:42;;;;;;;25.57;19.60;;;10.30;1.00;;;;;;5028482;28;20245;-76
2021/04/01 05:17:08;;;;;;;29.00;18.60;;;10.30;1.00;;;;;;5028881;28;20958;-76
2021/04/01 05:19:37;;;;;;;24.57;17.73;;;10.40;1.00;;;;;;5029854;28;20516;-76
2021/04/01 05:24:31;;;;;;;31.07;20.73;;;10.30;1.00;;;;;;5027596;28;20497;-76
2021/04/01 05:29:31;;;;;;;29.13;19.70;;;10.20;24.30;;;;;;5030100;28;20433;-76
2021/04/01 05:31:58;;;;;;;31.83;16.93;;;10.20;1.00;;;;;;5030046;28;20305;-76
2021/04/01 05:34:24;;;;;;;32.20;18.13;;;10.20;1.00;;;;;;5027558;28;20429;-76
2021/04/01 05:36:51;;;;;;;26.50;18.83;;;10.10;61.70;;;;;;5009133;28;20412;-76
2021/04/01 05:39:19;;;;;;;30.27;20.13;;;10.10;77.40;;;;;;5022859;28;20394;-76
2021/04/01 05:41:50;;;;;;;30.23;19.50;;;10.00;99.90;;;;;;5019744;28;20825;-77
2021/04/01 05:52:26;;;;;;;31.07;21.03;;;10.50;1.00;;;;;;4982875;28;20863;-77
2021/04/01 06:00:49;;;;;;;41.50;22.00;;;10.80;1.00;;;;;;5022321;28;20516;-77
2021/04/01 06:03:34;;;;;;;30.87;22.37;;;10.90;1.00;;;;;;4997882;23;20476;-77
2021/04/01 06:06:06;;;;;;;37.33;23.53;;;11.00;1.00;;;;;;4974234;28;20532;-77
2021/04/01 06:08:50;;;;;;;39.33;24.23;;;11.10;99.90;;;;;;5012095;28;20747;-77
2021/04/01 06:11:19;;;;;;;36.40;23.40;;;11.30;99.90;;;;;;4993464;28;21218;-77
2021/04/01 06:14:07;;;;;;;45.77;26.50;;;11.30;99.90;;;;;;4993643;28;20427;-77
2021/04/01 06:16:38;;;;;;;52.57;27.27;;;11.50;99.90;;;;;;4989788;28;20408;-77
2021/04/01 06:19:16;;;;;;;50.70;28.27;;;11.60;65.00;;;;;;5014233;28;20978;-77
2021/04/01 06:21:49;;;;;;;37.70;25.07;;;11.80;1.00;;;;;;5014190;28;20470;-77
2021/04/01 06:24:28;;;;;;;57.83;27.80;;;12.20;1.00;;;;;;5003413;28;21024;-77
2021/04/01 06:29:37;;;;;;;49.97;24.90;;;13.70;1.00;;;;;;4972232;28;20454;-77
2021/04/01 06:32:06;;;;;;;53.13;25.80;;;14.60;1.00;;;;;;5003785;28;20459;-77
2021/04/01 06:34:42;;;;;;;35.93;24.50;;;15.70;1.00;;;;;;5010250;28;20930;-77
2021/04/01 06:37:31;;;;;;;39.70;25.07;;;16.50;99.90;;;;;;4997472;28;20486;-77
2021/04/01 06:40:03;;;;;;;36.43;23.57;;;16.10;99.90;;;;;;5007612;28;20453;-77
2021/04/01 06:42:34;;;;;;;36.13;24.27;;;16.80;99.90;;;;;;4986184;28;20419;-77
2021/04/01 06:45:08;;;;;;;37.80;25.33;;;17.90;99.90;;;;;;5001645;28;20471;-78
2021/04/01 06:47:34;;;;;;;41.73;24.57;;;18.60;99.90;;;;;;5005144;28;20622;-77
2021/04/01 06:52:44;;;;;;;43.93;27.37;;;20.20;1.00;;;;;;5013133;28;20440;-78
2021/04/01 06:55:28;;;;;;;44.27;25.93;;;20.50;1.00;;;;;;4996302;28;20435;-77
2021/04/01 07:01:24;;;;;;;42.63;27.97;;;21.70;1.00;;;;;;5008156;28;20482;-77
2021/04/01 07:03:44;;;;;;;42.87;26.80;;;22.00;1.00;;;;;;5004276;28;21326;-77
2021/04/01 07:06:30;;;;;;;37.57;27.07;;;21.90;1.00;;;;;;5016358;28;20475;-77
2021/04/01 07:09:08;;;;;;;43.70;27.97;;;22.60;1.00;;;;;;5017818;28;20430;-77
2021/04/01 07:11:41;;;;;;;41.13;26.80;;;23.10;1.00;;;;;;4967084;28;20431;-77
2021/04/01 07:14:16;;;;;;;43.00;29.57;;;23.60;1.00;;;;;;4981838;28;21047;-77
2021/04/01 07:16:55;;;;;;;45.23;30.23;;;23.70;1.00;;;;;;5015119;28;20472;-78
2021/04/01 07:47:41;;;;;;;70.53;38.40;;;21.20;1.00;;;;;;4891654;28;22850;-77
2021/04/01 07:50:12;;;;;;;70.30;38.90;;;22.50;1.00;;;;;;4940513;28;20533;-77
2021/04/01 07:52:40;;;;;;;67.20;40.80;;;23.50;1.00;;;;;;4942941;28;20420;-77
2021/04/01 08:05:27;;;;;;;61.63;41.37;;;22.70;1.00;;;;;;4936895;28;20443;-77
2021/04/01 08:08:02;;;;;;;68.80;41.90;;;23.60;1.00;;;;;;4939576;28;20515;-77
2021/04/01 08:10:39;;;;;;;66.30;39.70;;;23.40;99.90;;;;;;4951065;28;20450;-77
2021/04/01 08:13:10;;;;;;;64.40;41.20;;;25.30;99.90;;;;;;5015026;28;20903;-77
2021/04/01 08:15:46;;;;;;;65.63;42.13;;;25.60;99.90;;;;;;5008588;28;20513;-77
2021/04/01 08:18:22;;;;;;;69.57;40.90;;;24.70;1.00;;;;;;4989781;28;20477;-77
2021/04/01 08:20:53;;;;;;;63.33;37.63;;;23.80;1.00;;;;;;4953745;28;20445;-78
2021/04/01 08:23:28;;;;;;;71.83;41.23;;;25.00;1.00;;;;;;5004759;28;20502;-76
2021/04/01 08:33:52;;;;;;;61.20;39.97;;;24.40;1.00;;;;;;5016932;28;20425;-78
2021/04/01 08:36:21;;;;;;;67.97;42.33;;;24.60;1.00;;;;;;4998842;28;20782;-78
2021/04/01 08:38:48;;;;;;;68.30;42.07;;;24.10;1.00;;;;;;5016074;28;20857;-77
2021/04/01 08:41:32;;;;;;;70.20;39.23;;;25.70;1.00;;;;;;4972904;28;21183;-77
2021/04/01 08:44:35;;;;;;;68.30;40.07;;;27.00;1.00;;;;;;5001606;28;20843;-78
2021/04/01 08:47:11;;;;;;;67.03;42.13;;;25.70;1.00;;;;;;4987337;28;20487;-77
2021/04/01 08:49:44;;;;;;;61.93;39.43;;;26.50;1.00;;;;;;5006672;28;20593;-77
2021/04/01 08:52:51;;;;;;;67.10;42.17;;;26.20;1.00;;;;;;5007464;28;20955;-77
2021/04/01 08:55:19;;;;;;;73.33;43.60;;;23.70;1.00;;;;;;4985251;28;20413;-77
2021/04/01 08:58:03;;;;;;;62.57;41.93;;;25.10;1.00;;;;;;5012792;28;20413;-77
2021/04/01 09:00:32;;;;;;;73.00;46.97;;;26.80;1.00;;;;;;4998518;28;20519;-77
2021/04/01 09:02:59;;;;;;;80.20;44.20;;;23.60;1.00;;;;;;4982428;28;20442;-77
2021/04/01 09:05:25;;;;;;;77.67;43.57;;;23.00;11.10;;;;;;5001461;28;20432;-77
2021/04/01 09:07:56;;;;;;;75.97;41.20;;;22.60;10.80;;;;;;4987576;28;21698;-77
2021/04/01 09:10:24;;;;;;;72.80;41.50;;;24.20;26.00;;;;;;4985806;28;20439;-77
2021/04/01 09:17:51;;;;;;;72.30;43.93;;;26.50;43.20;;;;;;5004256;28;20830;-77
2021/04/01 09:20:24;;;;;;;69.90;43.53;;;27.30;41.90;;;;;;5011708;28;20436;-77
2021/04/01 09:22:56;;;;;;;70.63;41.57;;;28.90;40.70;;;;;;5019585;28;20422;-77
2021/04/01 09:25:36;;;;;;;68.00;43.53;;;27.10;42.50;;;;;;4986552;28;20806;-79
2021/04/01 09:28:05;;;;;;;70.20;41.07;;;27.90;43.20;;;;;;4991307;28;20491;-77
2021/04/01 09:30:30;;;;;;;65.47;42.57;;;28.10;42.50;;;;;;5016626;28;20453;-76
2021/04/01 09:33:00;;;;;;;63.27;42.33;;;28.80;42.30;;;;;;5013490;28;20458;-77
2021/04/01 09:35:27;;;;;;;63.97;40.43;;;26.40;42.10;;;;;;5017767;28;20691;-77
2021/04/01 09:38:00;;;;;;;70.20;43.67;;;25.20;44.30;;;;;;5000214;28;20496;-77
2021/04/01 09:40:36;;;;;;;62.90;40.60;;;24.90;44.40;;;;;;5017350;28;20429;-77
2021/04/01 09:43:16;;;;;;;69.80;39.10;;;24.10;45.70;;;;;;5010376;28;20482;-77
2021/04/01 09:45:42;;;;;;;67.37;40.27;;;24.50;46.00;;;;;;5017075;28;20428;-77
2021/04/01 09:48:10;;;;;;;65.53;39.57;;;25.40;44.10;;;;;;5017829;28;20920;-77
2021/04/01 09:50:39;;;;;;;66.73;38.80;;;25.00;45.50;;;;;;4994683;28;20499;-77
2021/04/01 09:53:13;;;;;;;56.07;35.80;;;25.00;45.80;;;;;;5016719;28;20987;-78
2021/04/01 09:55:41;;;;;;;62.17;37.03;;;24.80;45.60;;;;;;5002635;28;20428;-77
2021/04/01 09:58:30;;;;;;;64.43;39.03;;;24.40;46.20;;;;;;5016221;28;20491;-78
2021/04/01 10:02:34;;;;;;;63.30;40.20;;;24.60;46.80;;;;;;3621348;39;20544;-76
2021/04/01 10:05:06;;;;;;;54.50;34.67;;;26.10;45.60;;;;;;3604077;39;20491;-76
2021/04/01 10:07:36;;;;;;;72.03;36.53;;;28.20;43.10;;;;;;3609652;39;20442;-75
2021/04/01 10:10:04;;;;;;;59.40;36.80;;;27.90;42.80;;;;;;3620270;39;20451;-75
2021/04/01 10:12:38;;;;;;;60.67;36.13;;;28.10;41.60;;;;;;3618018;39;20442;-76
2021/04/01 10:15:11;;;;;;;66.13;39.53;;;27.40;44.30;;;;;;3609458;39;20563;-77
2021/04/01 10:17:39;;;;;;;58.77;36.90;;;25.90;42.80;;;;;;3606667;39;20449;-77
2021/04/01 10:20:07;;;;;;;63.80;37.17;;;27.00;44.20;;;;;;3612461;39;20505;-77
2021/04/01 10:22:36;;;;;;;66.90;36.10;;;26.40;44.80;;;;;;3604918;39;20462;-77
2021/04/01 10:25:17;;;;;;;61.07;37.83;;;27.60;44.50;;;;;;3591570;39;20420;-77
2021/04/01 10:30:17;;;;;;;57.70;37.10;;;28.20;42.20;;;;;;3597804;39;20464;-77
2021/04/01 10:32:53;;;;;;;64.77;39.60;;;26.30;43.20;;;;;;3599572;39;20526;-77
2021/04/01 10:35:23;;;;;;;62.40;37.97;;;25.20;46.80;;;;;;3603328;39;20428;-77
2021/04/01 10:37:52;;;;;;;59.30;39.03;;;24.70;47.70;;;;;;3598723;39;20451;-77
2021/04/01 10:40:20;;;;;;;54.73;38.30;;;26.00;46.40;;;;;;3597102;39;20471;-77
2021/04/01 10:42:49;;;;;;;61.50;38.37;;;24.10;46.60;;;;;;3612801;39;20459;-77
2021/04/01 10:45:22;;;;;;;57.93;37.97;;;24.50;48.50;;;;;;3588483;39;20520;-77
2021/04/01 10:47:57;;;;;;;64.97;40.60;;;25.20;46.70;;;;;;3598598;39;20477;-77
2021/04/01 10:50:28;;;;;;;59.80;39.47;;;24.00;47.60;;;;;;3615769;39;20491;-77
2021/04/01 10:52:55;;;;;;;66.30;37.77;;;24.60;49.20;;;;;;3598360;39;20479;-77
2021/04/01 10:55:40;;;;;;;65.67;38.90;;;25.40;48.90;;;;;;3615436;39;20451;-77
2021/04/01 10:58:10;;;;;;;54.83;37.90;;;24.20;48.70;;;;;;3608577;39;20450;-77
2021/04/01 11:00:36;;;;;;;62.03;39.00;;;26.00;48.00;;;;;;3602304;39;20454;-78
2021/04/01 11:03:04;;;;;;;56.83;35.63;;;25.00;47.20;;;;;;3611955;39;20490;-77
2021/04/01 11:05:35;;;;;;;52.43;34.97;;;26.30;47.30;;;;;;3608534;39;20460;-78
2021/04/01 11:08:10;;;;;;;61.37;38.30;;;27.40;45.60;;;;;;3603880;39;20842;-78
2021/04/01 11:10:37;;;;;;;65.30;40.57;;;27.30;45.40;;;;;;3611553;39;20462;-77
2021/04/01 11:13:05;;;;;;;56.87;37.93;;;26.70;45.30;;;;;;3605210;39;20444;-79
2021/04/01 11:15:42;;;;;;;49.07;35.00;;;28.40;44.70;;;;;;3608930;39;20565;-77
2021/04/01 11:18:20;;;;;;;52.37;34.47;;;27.10;45.00;;;;;;3595481;39;20462;-77
2021/04/01 11:20:51;;;;;;;59.93;37.73;;;28.20;43.80;;;;;;3592561;39;20547;-78
2021/04/01 11:23:22;;;;;;;59.60;39.00;;;27.50;44.70;;;;;;3593562;39;20936;-77
2021/04/01 11:25:48;;;;;;;58.70;38.77;;;24.20;46.70;;;;;;3591537;39;20578;-77
2021/04/01 11:28:14;;;;;;;60.03;40.20;;;24.30;50.70;;;;;;3602523;39;20799;-78
2021/04/01 11:30:52;;;;;;;56.83;38.37;;;24.50;48.70;;;;;;3593490;39;20641;-76
2021/04/01 11:33:20;;;;;;;56.10;39.43;;;25.80;48.10;;;;;;3594279;39;20452;-77
2021/04/01 11:35:59;;;;;;;58.23;41.90;;;27.60;46.20;;;;;;3608040;39;20582;-77
2021/04/01 11:38:26;;;;;;;58.90;39.73;;;24.90;46.80;;;;;;3594855;39;20436;-76
2021/04/01 11:40:57;;;;;;;56.63;40.57;;;24.80;50.60;;;;;;3601226;39;20436;-77
2021/04/01 11:43:31;;;;;;;62.70;39.87;;;26.30;47.90;;;;;;3609715;39;20448;-77
2021/04/01 11:46:11;;;;;;;53.67;36.80;;;27.40;46.10;;;;;;3608514;39;20459;-76
2021/04/01 11:48:38;;;;;;;58.33;38.00;;;27.50;44.70;;;;;;3608260;39;20440;-77
2021/04/01 11:51:10;;;;;;;55.50;39.67;;;26.40;46.40;;;;;;3583971;39;21242;-77
2021/04/01 11:53:39;;;;;;;53.43;37.67;;;26.70;46.30;;;;;;3597991;39;20464;-77
2021/04/01 11:56:05;;;;;;;53.50;41.40;;;27.20;46.40;;;;;;3607745;39;20520;-77
2021/04/01 11:58:34;;;;;;;53.67;40.07;;;27.10;46.00;;;;;;3578187;39;20421;-77
2021/04/01 12:01:06;;;;;;;56.47;42.90;;;27.10;47.30;;;;;;3592185;39;20515;-77
2021/04/01 12:03:46;;;;;;;61.53;43.13;;;26.10;47.80;;;;;;3604181;39;20472;-77
2021/04/01 12:06:14;;;;;;;64.67;42.43;;;25.90;49.30;;;;;;3592218;39;20565;-77
2021/04/01 12:08:40;;;;;;;60.30;41.40;;;26.50;48.30;;;;;;3612674;39;20738;-77
2021/04/01 12:11:07;;;;;;;59.70;44.30;;;26.50;47.80;;;;;;3593234;39;20560;-77
2021/04/01 12:13:32;;;;;;;55.87;40.07;;;27.00;47.20;;;;;;3593545;39;20463;-78
2021/04/01 12:15:59;;;;;;;55.37;43.37;;;27.60;46.80;;;;;;3611841;39;20485;-76
2021/04/01 12:18:25;;;;;;;60.40;43.20;;;26.70;46.80;;;;;;3610233;39;20330;-78
2021/04/01 12:20:51;;;;;;;64.87;46.20;;;26.80;47.50;;;;;;3594434;39;20877;-77
2021/04/01 12:23:23;;;;;;;60.13;46.00;;;26.30;48.50;;;;;;3603557;39;20441;-76
2021/04/01 12:25:50;;;;;;;68.00;47.87;;;25.50;49.00;;;;;;3593953;39;20460;-77
2021/04/01 12:28:20;;;;;;;74.70;53.20;;;26.00;48.90;;;;;;3608340;39;20472;-76
2021/04/01 12:30:48;;;;;;;64.20;47.47;;;24.80;49.20;;;;;;3611630;39;21499;-77
2021/04/01 12:33:20;;;;;;;65.27;46.43;;;25.00;49.10;;;;;;3597917;39;20456;-77
2021/04/01 12:35:54;;;;;;;68.40;49.17;;;24.50;48.80;;;;;;3604016;39;20460;-77
2021/04/01 12:38:39;;;;;;;72.10;48.97;;;24.40;49.50;;;;;;3596410;39;20419;-77
2021/04/01 12:41:21;;;;;;;66.27;46.07;;;24.70;49.10;;;;;;3604410;39;20437;-77
2021/04/01 12:43:48;;;;;;;66.90;46.20;;;24.40;48.80;;;;;;3596967;39;20464;-78
2021/04/01 12:46:14;;;;;;;79.90;48.57;;;25.20;49.40;;;;;;3598829;39;20444;-76
2021/04/01 12:48:51;;;;;;;69.60;46.00;;;24.30;49.40;;;;;;3603784;39;20455;-76
2021/04/01 12:51:20;;;;;;;64.37;46.20;;;23.90;49.90;;;;;;3605378;39;20527;-77
2021/04/01 12:54:07;;;;;;;55.80;44.73;;;24.50;50.00;;;;;;3593994;39;20597;-77
2021/04/01 12:59:13;;;;;;;53.70;40.00;;;24.40;50.30;;;;;;3601705;39;20531;-76
2021/04/01 13:01:42;;;;;;;44.30;33.50;;;24.40;50.50;;;;;;3592221;39;20994;-76
2021/04/01 13:04:11;;;;;;;44.13;30.47;;;24.30;49.10;;;;;;3592566;39;20521;-76
2021/04/01 13:11:53;;;;;;;31.03;24.63;;;25.00;49.10;;;;;;3611000;39;20461;-76
2021/04/01 13:14:24;;;;;;;36.50;23.73;;;24.30;48.80;;;;;;3612352;39;20459;-76
2021/04/01 13:16:50;;;;;;;33.70;23.00;;;24.00;47.90;;;;;;3605751;39;20926;-76
2021/04/01 13:19:17;;;;;;;26.97;22.27;;;23.90;49.40;;;;;;3613261;39;20593;-76
2021/04/01 13:24:32;;;;;;;28.33;20.33;;;24.90;48.50;;;;;;3587919;39;20464;-76
2021/04/01 13:26:58;;;;;;;21.27;17.93;;;24.50;48.70;;;;;;3586375;39;20417;-76
2021/04/01 13:29:28;;;;;;;23.00;17.27;;;24.80;47.80;;;;;;3603861;39;20967;-76
2021/04/01 13:31:59;;;;;;;20.93;16.63;;;25.00;46.80;;;;;;3603997;39;20898;-76
2021/04/01 13:39:31;;;;;;;20.20;16.10;;;25.00;47.30;;;;;;3605760;39;20432;-76
2021/04/01 13:44:26;;;;;;;18.17;15.30;;;24.00;48.10;;;;;;3595629;39;20473;-76
2021/04/01 13:46:52;;;;;;;22.40;15.73;;;23.30;50.40;;;;;;3586355;39;20437;-76
2021/04/01 13:49:25;;;;;;;21.20;14.87;;;24.20;49.70;;;;;;3611157;39;20617;-76
2021/04/01 13:51:57;;;;;;;16.00;12.53;;;24.40;50.30;;;;;;3603135;39;20236;-77
2021/04/01 13:54:45;;;;;;;14.70;13.20;;;24.50;50.20;;;;;;3603074;39;20437;-76
2021/04/01 14:00:25;;;;;;;11.13;9.53;;;25.10;50.00;;;;;;3592809;39;20457;-76
2021/04/01 14:11:27;;;;;;;9.10;8.20;;;22.60;51.90;;;;;;3582519;39;20473;-77
2021/04/01 14:13:53;;;;;;;9.40;7.17;;;22.20;53.10;;;;;;3583043;39;20443;-77
2021/04/01 14:16:20;;;;;;;12.30;7.23;;;22.50;53.30;;;;;;3574771;40;20555;-77
2021/04/01 14:18:49;;;;;;;11.20;6.10;;;22.10;54.10;;;;;;3575243;39;20498;-77
2021/04/01 14:21:20;;;;;;;7.93;6.23;;;22.20;53.80;;;;;;3582948;40;20442;-77
2021/04/01 14:23:48;;;;;;;11.60;6.83;;;22.00;54.10;;;;;;3585244;39;20438;-77
2021/04/01 14:28:47;;;;;;;10.10;8.50;;;22.00;55.30;;;;;;3583875;39;20816;-77
2021/04/01 14:31:14;;;;;;;8.67;7.57;;;21.90;55.10;;;;;;3579337;39;20442;-76
2021/04/01 14:33:43;;;;;;;10.30;7.10;;;21.50;55.30;;;;;;3586503;39;21584;-77
2021/04/01 14:36:12;;;;;;;6.80;6.20;;;21.80;55.90;;;;;;3597306;39;20556;-77
2021/04/01 14:38:40;;;;;;;6.43;5.37;;;21.90;54.70;;;;;;3586870;39;20449;-77
2021/04/01 14:41:15;;;;;;;6.50;5.40;;;21.20;54.40;;;;;;3588450;39;20646;-76
2021/04/01 14:46:27;;;;;;;6.80;4.87;;;20.70;55.70;;;;;;3594278;39;20468;-76
2021/04/01 14:48:55;;;;;;;5.00;4.50;;;20.00;56.30;;;;;;3586425;39;21026;-76
2021/04/01 14:51:22;;;;;;;6.60;3.73;;;20.20;56.90;;;;;;3579141;39;20564;-76
2021/04/01 14:53:53;;;;;;;5.30;4.53;;;20.10;56.60;;;;;;3597124;39;20443;-75
2021/04/01 14:56:20;;;;;;;5.13;3.63;;;20.10;57.20;;;;;;3598276;39;20468;-75
2021/04/01 14:58:47;;;;;;;3.50;3.20;;;20.30;56.80;;;;;;3596940;39;20516;-76
2021/04/01 15:01:16;;;;;;;4.43;3.90;;;20.30;56.30;;;;;;3586054;39;20521;-76
2021/04/01 15:03:42;;;;;;;7.10;3.90;;;20.90;56.60;;;;;;3597786;39;20432;-76
2021/04/01 15:06:17;;;;;;;3.83;3.43;;;20.10;55.60;;;;;;3578838;39;20488;-76